Startpagina
METAR-TAF:

METAR-TAF

Vliegvelden :

Rurrenabaque, Bolivia

breedte: 14-28S, lengte: 067-34W, hoogte: 204 m

Actueel weer

Dit bericht is 21 minuten geleden gemaakt, om 17:00 UTC
Weinig wind
Temperatuur 25°C
Vochtigheid 94%
Druk 1011 hPa
Zicht 10 km of meer
Verspreide wolken op 600 ft
Gebroken wolken op 1300 ft
Geheel bewolkt op 7000 ft

METAR: SLRQ 261700Z 00000KT 9999 SCT006 BKN013 OVC070 25/24 Q1011

Tijdstip: 13:21 (17:21 UTC)


TAF: ontbreekt

Waarnemingen en weersverwachtingen van meer dan 4000 vliegvelden (METAR en TAF).

De beschikbare stations zijn de gele en rode punten op de kaart.

Ga met uw muis naar het station om de naam te zien.

Klik dan om waarnemingen en weersverwachtingen te zien.

kaart wijzigen: klik op de groene knoppen met een zwart kruis om in te zoomen, op de groene knop met een streepje om uit te zoomen of op de groene pijlen voor aangrenzende kaarten.


METAR-TAF: